createdAt,value
2017-10-01T00:01:06.206Z,11.57
2017-10-01T00:03:33.844Z,11.55
2017-10-01T00:06:01.464Z,10.85
2017-10-01T00:08:29.851Z,11.70
2017-10-01T00:10:58.181Z,12.07
2017-10-01T00:13:26.529Z,15.70
2017-10-01T00:15:54.129Z,15.25
2017-10-01T00:18:21.782Z,16.92
2017-10-01T00:20:49.394Z,15.80
2017-10-01T00:23:17.006Z,16.35
2017-10-01T00:25:44.637Z,17.37
2017-10-01T00:28:12.264Z,17.52
2017-10-01T00:30:40.629Z,16.65
2017-10-01T00:33:09.036Z,15.20
2017-10-01T00:35:37.482Z,14.40
2017-10-01T00:38:05.074Z,15.55
2017-10-01T00:40:33.454Z,15.32
2017-10-01T00:43:01.924Z,14.10
2017-10-01T00:45:29.565Z,16.05
2017-10-01T00:47:57.470Z,16.42
2017-10-01T00:50:25.135Z,16.83
2017-10-01T00:52:52.775Z,19.00
2017-10-01T00:55:21.545Z,17.80
2017-10-01T00:57:49.154Z,19.55
2017-10-01T01:00:16.795Z,19.65
2017-10-01T01:02:44.350Z,27.42
2017-10-01T01:05:12.750Z,26.80
2017-10-01T01:07:40.377Z,29.00
2017-10-01T01:10:07.972Z,29.95
2017-10-01T01:12:35.566Z,30.12
2017-10-01T01:15:03.174Z,33.08
2017-10-01T01:17:31.528Z,35.75
2017-10-01T01:19:59.077Z,34.35
2017-10-01T01:22:26.752Z,38.33
2017-10-01T01:24:54.380Z,30.88
2017-10-01T01:27:21.962Z,30.83
2017-10-01T01:29:49.579Z,32.70
2017-10-01T01:32:17.214Z,39.08
2017-10-01T01:34:45.602Z,34.17
2017-10-01T01:37:13.220Z,35.85
2017-10-01T01:39:40.815Z,34.72
2017-10-01T01:42:09.564Z,33.65
2017-10-01T01:44:37.176Z,23.92
2017-10-01T01:47:05.591Z,34.08
2017-10-01T01:49:33.258Z,34.22
2017-10-01T01:52:00.844Z,34.70
2017-10-01T01:54:28.630Z,32.25
2017-10-01T01:56:56.223Z,35.22
2017-10-01T01:59:24.432Z,35.78
2017-10-01T02:01:52.036Z,37.45
2017-10-01T02:04:20.422Z,36.10
2017-10-01T02:06:48.135Z,38.17
2017-10-01T02:09:15.780Z,37.05
2017-10-01T02:11:44.290Z,36.08
2017-10-01T02:14:12.000Z,36.08
2017-10-01T02:16:39.638Z,35.83
2017-10-01T02:19:08.005Z,33.70
2017-10-01T02:21:37.221Z,34.42
2017-10-01T02:24:04.836Z,32.50
2017-10-01T02:26:33.337Z,33.17
2017-10-01T02:29:00.921Z,28.17
2017-10-01T02:31:29.375Z,34.60
2017-10-01T02:33:57.264Z,37.17
2017-10-01T02:38:59.878Z,35.88
2017-10-01T02:41:27.453Z,38.22
2017-10-01T02:43:55.095Z,38.45
2017-10-01T02:46:22.681Z,40.50
2017-10-01T02:48:51.302Z,36.22
2017-10-01T02:51:18.927Z,35.05
2017-10-01T02:53:46.550Z,35.53
2017-10-01T02:56:14.926Z,34.08
2017-10-01T02:58:42.528Z,33.35
2017-10-01T03:01:10.204Z,34.58
2017-10-01T03:03:37.870Z,36.30
2017-10-01T03:06:05.490Z,37.50
2017-10-01T03:08:33.153Z,32.85
2017-10-01T03:11:00.783Z,32.20
2017-10-01T03:13:29.174Z,33.33
2017-10-01T03:15:56.765Z,32.53
2017-10-01T03:18:24.453Z,32.30
2017-10-01T03:20:52.057Z,32.47
2017-10-01T03:23:20.433Z,33.38
2017-10-01T03:25:48.846Z,33.65
2017-10-01T03:28:16.436Z,31.80
2017-10-01T03:30:44.944Z,33.08
2017-10-01T03:33:12.623Z,32.28
2017-10-01T03:35:41.083Z,34.05
2017-10-01T03:38:08.716Z,32.90
2017-10-01T03:40:36.672Z,32.13
2017-10-01T03:43:04.296Z,31.98
2017-10-01T03:45:31.932Z,32.55
2017-10-01T03:47:59.554Z,34.25
2017-10-01T03:50:27.150Z,32.50
2017-10-01T03:52:54.840Z,33.90
2017-10-01T03:55:23.224Z,32.60
2017-10-01T03:57:50.877Z,31.70
2017-10-01T04:00:19.497Z,34.78
2017-10-01T04:02:48.005Z,31.95
2017-10-01T04:05:15.634Z,30.73
2017-10-01T04:07:43.192Z,29.63
2017-10-01T04:10:10.858Z,33.15
2017-10-01T04:12:38.435Z,31.58
2017-10-01T04:15:06.088Z,31.42
2017-10-01T04:17:34.498Z,32.47
2017-10-01T04:20:02.080Z,33.33
2017-10-01T04:22:29.706Z,32.88
2017-10-01T04:24:57.305Z,31.60
2017-10-01T04:27:26.152Z,33.17
2017-10-01T04:29:54.718Z,32.10
2017-10-01T04:32:22.347Z,33.70
2017-10-01T04:34:50.739Z,34.53
2017-10-01T04:37:18.369Z,37.45
2017-10-01T04:39:46.015Z,32.50
2017-10-01T04:42:13.596Z,28.77
2017-10-01T04:44:42.044Z,29.80
2017-10-01T04:47:09.647Z,32.30
2017-10-01T04:49:38.075Z,30.42
2017-10-01T04:52:05.720Z,29.17
2017-10-01T04:54:35.032Z,30.42
2017-10-01T04:57:02.869Z,29.20
2017-10-01T04:59:30.482Z,30.27
2017-10-01T05:01:58.077Z,30.77
2017-10-01T05:04:26.405Z,29.60
2017-10-01T05:06:54.818Z,27.62
2017-10-01T05:09:22.423Z,33.00
2017-10-01T05:11:50.000Z,32.13
2017-10-01T05:14:18.363Z,33.42
2017-10-01T05:16:46.040Z,30.27
2017-10-01T05:19:13.674Z,33.88
2017-10-01T05:21:41.726Z,34.55
2017-10-01T05:24:10.106Z,32.70
2017-10-01T05:26:38.493Z,34.85
2017-10-01T05:29:06.861Z,34.95
2017-10-01T05:31:35.236Z,35.90
2017-10-01T05:34:03.631Z,31.35
2017-10-01T05:36:31.273Z,31.75
2017-10-01T05:38:58.887Z,37.17
2017-10-01T05:41:26.490Z,29.27
2017-10-01T05:43:54.861Z,28.75
2017-10-01T05:46:22.472Z,28.42
2017-10-01T05:48:50.088Z,26.33
2017-10-01T05:51:17.669Z,28.05
2017-10-01T05:53:45.336Z,27.02
2017-10-01T05:56:12.923Z,26.40
2017-10-01T05:58:40.548Z,26.80
2017-10-01T06:01:08.869Z,24.02
2017-10-01T06:03:36.471Z,26.05
2017-10-01T06:06:04.830Z,25.65
2017-10-01T06:08:32.449Z,24.02
2017-10-01T06:11:00.066Z,23.12
2017-10-01T06:13:27.950Z,24.10
2017-10-01T06:15:55.569Z,24.52
2017-10-01T06:18:23.193Z,23.10
2017-10-01T06:20:50.774Z,23.10
2017-10-01T06:23:18.396Z,25.62
2017-10-01T06:25:46.713Z,24.80
2017-10-01T06:28:14.329Z,24.17
2017-10-01T06:30:41.901Z,21.00
2017-10-01T06:33:09.509Z,23.67
2017-10-01T06:35:37.157Z,20.62
2017-10-01T06:38:04.799Z,22.55
2017-10-01T06:40:32.388Z,22.25
2017-10-01T06:43:00.011Z,21.77
2017-10-01T06:45:27.599Z,20.08
2017-10-01T06:47:55.907Z,19.55
2017-10-01T06:50:23.537Z,19.65
2017-10-01T06:52:51.152Z,21.67
2017-10-01T06:55:19.661Z,20.45
2017-10-01T06:57:48.416Z,18.10
2017-10-01T07:00:16.001Z,19.55
2017-10-01T07:02:43.632Z,30.98
2017-10-01T07:05:12.231Z,18.98
2017-10-01T07:07:40.593Z,19.00
2017-10-01T07:10:09.030Z,18.35
2017-10-01T07:12:36.625Z,19.20
2017-10-01T07:15:05.055Z,20.35
2017-10-01T07:17:32.640Z,18.98
2017-10-01T07:20:00.248Z,18.00
2017-10-01T07:22:29.084Z,19.42
2017-10-01T07:24:56.760Z,19.58
2017-10-01T07:27:24.346Z,18.10
2017-10-01T07:29:53.616Z,18.80
2017-10-01T07:32:21.299Z,18.25
2017-10-01T07:34:48.919Z,18.62
2017-10-01T07:37:16.525Z,17.45
2017-10-01T07:39:44.125Z,17.98
2017-10-01T07:42:11.777Z,16.75
2017-10-01T07:44:39.386Z,16.62
2017-10-01T07:47:06.970Z,16.40
2017-10-01T07:49:35.359Z,15.48
2017-10-01T07:52:03.943Z,16.02
2017-10-01T07:54:32.337Z,17.80
2017-10-01T07:56:59.969Z,15.60
2017-10-01T07:59:28.362Z,14.82
2017-10-01T08:01:56.790Z,14.68
2017-10-01T08:04:24.470Z,13.40
2017-10-01T08:06:52.841Z,15.23
2017-10-01T08:09:20.412Z,14.82
2017-10-01T08:11:48.030Z,15.00
2017-10-01T08:14:15.648Z,15.00
2017-10-01T08:16:43.304Z,14.38
2017-10-01T08:19:11.695Z,13.10
2017-10-01T08:21:40.081Z,13.63
2017-10-01T08:24:08.445Z,14.67
2017-10-01T08:26:36.085Z,12.07
2017-10-01T08:29:04.506Z,14.30
2017-10-01T08:31:32.101Z,13.10
2017-10-01T08:34:00.501Z,11.73
2017-10-01T08:36:28.088Z,10.70
2017-10-01T08:38:55.783Z,10.20
2017-10-01T08:41:23.434Z,12.03
2017-10-01T08:43:52.150Z,11.37
2017-10-01T08:46:19.741Z,10.90
2017-10-01T08:48:47.364Z,9.83
2017-10-01T08:51:15.007Z,10.23
2017-10-01T08:53:43.530Z,9.83
2017-10-01T08:56:11.117Z,10.70
2017-10-01T08:58:38.756Z,10.93
2017-10-01T09:01:07.350Z,10.47
2017-10-01T09:03:35.020Z,8.40
2017-10-01T09:06:03.412Z,9.07
2017-10-01T09:08:31.004Z,7.50
2017-10-01T09:10:58.613Z,9.43
2017-10-01T09:13:26.905Z,9.07
2017-10-01T09:15:54.509Z,8.27
2017-10-01T09:18:22.083Z,7.43
2017-10-01T09:20:49.738Z,7.70
2017-10-01T09:23:18.185Z,7.17
2017-10-01T09:25:46.608Z,7.63
2017-10-01T09:28:14.241Z,9.00
2017-10-01T09:30:41.849Z,7.10
2017-10-01T09:33:09.491Z,7.33
2017-10-01T09:35:37.078Z,7.10
2017-10-01T09:38:04.718Z,8.60
2017-10-01T09:40:32.331Z,6.93
2017-10-01T09:43:00.688Z,8.03
2017-10-01T09:45:28.296Z,7.53
2017-10-01T09:47:56.998Z,6.43
2017-10-01T09:50:24.757Z,6.50
2017-10-01T09:52:52.356Z,6.93
2017-10-01T09:55:19.934Z,5.60
2017-10-01T09:57:47.531Z,6.10
2017-10-01T10:00:15.147Z,5.23
2017-10-01T10:02:43.561Z,6.10
2017-10-01T10:05:11.186Z,6.90
2017-10-01T10:07:38.784Z,5.40
2017-10-01T10:10:06.359Z,4.57
2017-10-01T10:12:33.985Z,5.80
2017-10-01T10:15:02.372Z,5.00
2017-10-01T10:17:30.733Z,4.20
2017-10-01T10:19:58.466Z,4.00
2017-10-01T10:22:26.041Z,3.40
2017-10-01T10:24:53.656Z,4.27
2017-10-01T10:27:21.256Z,4.27
2017-10-01T10:29:49.000Z,4.47
2017-10-01T10:32:16.612Z,3.60
2017-10-01T10:34:44.241Z,4.67
2017-10-01T10:37:11.942Z,3.37
2017-10-01T10:39:40.337Z,3.10
2017-10-01T10:42:08.026Z,2.70
2017-10-01T10:44:35.732Z,3.20
2017-10-01T10:47:04.128Z,3.10
2017-10-01T10:49:32.488Z,2.90
2017-10-01T10:52:00.858Z,2.80
2017-10-01T10:54:28.452Z,3.10
2017-10-01T10:56:56.020Z,3.00
2017-10-01T10:59:23.607Z,3.07
2017-10-01T11:01:51.991Z,2.90
2017-10-01T11:04:19.617Z,2.30
2017-10-01T11:06:47.723Z,3.03
2017-10-01T11:09:15.301Z,3.20
2017-10-01T11:11:42.953Z,3.40
2017-10-01T11:14:10.784Z,2.40
2017-10-01T11:16:38.461Z,2.33
2017-10-01T11:19:06.129Z,3.00
2017-10-01T11:21:33.704Z,2.23
2017-10-01T11:24:01.430Z,3.10
2017-10-01T11:26:29.055Z,2.60
2017-10-01T11:28:56.640Z,2.73
2017-10-01T11:31:24.305Z,2.53
2017-10-01T11:33:51.901Z,3.37
2017-10-01T11:36:19.560Z,3.03
2017-10-01T11:38:47.227Z,3.73
2017-10-01T11:41:15.619Z,3.07
2017-10-01T11:43:43.253Z,2.43
2017-10-01T11:46:10.893Z,3.10
2017-10-01T11:48:38.480Z,2.80
2017-10-01T11:51:06.106Z,2.13
2017-10-01T11:53:33.706Z,2.10
2017-10-01T11:56:01.352Z,2.77
2017-10-01T11:58:28.945Z,2.07
2017-10-01T12:00:56.588Z,3.50
2017-10-01T12:03:24.205Z,2.90
2017-10-01T12:05:52.531Z,2.10
2017-10-01T12:08:20.150Z,2.30
2017-10-01T12:10:48.515Z,2.00
2017-10-01T12:13:16.891Z,3.03
2017-10-01T12:15:44.510Z,3.20
2017-10-01T12:18:12.167Z,2.97
2017-10-01T12:20:39.759Z,2.80
2017-10-01T12:23:07.376Z,2.50
2017-10-01T12:25:34.999Z,3.17
2017-10-01T12:28:02.612Z,2.47
2017-10-01T12:30:31.099Z,3.10
2017-10-01T12:32:58.691Z,3.30
2017-10-01T12:35:27.157Z,2.93
2017-10-01T12:37:55.304Z,3.00
2017-10-01T12:40:22.901Z,2.50
2017-10-01T12:42:50.524Z,2.80
2017-10-01T12:45:18.114Z,3.00
2017-10-01T12:47:45.708Z,2.87
2017-10-01T12:50:14.016Z,2.80
2017-10-01T12:52:41.656Z,3.00
2017-10-01T12:55:09.271Z,2.47
2017-10-01T12:57:36.865Z,2.73
2017-10-01T13:00:05.252Z,2.90
2017-10-01T13:02:32.832Z,2.23
2017-10-01T13:05:00.450Z,2.90
2017-10-01T13:07:28.081Z,2.43
2017-10-01T13:09:55.667Z,2.57
2017-10-01T13:12:23.267Z,2.20
2017-10-01T13:14:50.956Z,2.60
2017-10-01T13:17:18.670Z,2.10
2017-10-01T13:19:47.306Z,2.00
2017-10-01T13:22:14.857Z,2.17
2017-10-01T13:24:42.444Z,1.90
2017-10-01T13:27:10.044Z,1.60
2017-10-01T13:29:38.455Z,1.57
2017-10-01T13:32:06.106Z,2.37
2017-10-01T13:34:33.693Z,1.23
2017-10-01T13:37:01.313Z,2.13
2017-10-01T13:39:28.927Z,1.97
2017-10-01T13:41:56.982Z,1.40
2017-10-01T13:44:24.542Z,1.63
2017-10-01T13:46:52.124Z,1.73
2017-10-01T13:49:19.748Z,1.20
2017-10-01T13:51:47.336Z,1.03
2017-10-01T13:54:15.055Z,1.07
2017-10-01T13:56:42.652Z,1.40
2017-10-01T13:59:10.304Z,1.87
2017-10-01T14:01:37.982Z,1.17
2017-10-01T14:04:05.605Z,1.20
2017-10-01T14:06:33.225Z,1.53
2017-10-01T14:09:01.149Z,1.20
2017-10-01T14:11:28.804Z,1.30
2017-10-01T14:13:56.404Z,3.43
2017-10-01T14:16:24.022Z,0.70
2017-10-01T14:18:51.597Z,1.63
2017-10-01T14:21:19.264Z,1.00
2017-10-01T14:23:47.214Z,1.57
2017-10-01T14:26:14.779Z,1.23
2017-10-01T14:28:43.161Z,1.83
2017-10-01T14:31:27.350Z,1.00
2017-10-01T14:33:55.744Z,1.10
2017-10-01T14:36:24.112Z,0.77
2017-10-01T14:38:52.515Z,0.90
2017-10-01T14:41:20.904Z,0.90
2017-10-01T14:43:48.500Z,1.30
2017-10-01T14:46:16.065Z,0.90
2017-10-01T14:48:43.874Z,1.43
2017-10-01T14:51:12.318Z,1.80
2017-10-01T14:53:39.929Z,1.60
2017-10-01T14:56:07.798Z,1.20
2017-10-01T14:58:35.388Z,0.80
2017-10-01T15:01:03.101Z,1.40
2017-10-01T15:03:31.478Z,0.97
2017-10-01T15:05:59.050Z,1.90
2017-10-01T15:08:27.483Z,1.13
2017-10-01T15:13:29.209Z,1.90
2017-10-01T15:15:56.748Z,1.60
2017-10-01T15:18:25.186Z,1.50
2017-10-01T15:20:52.827Z,1.10
2017-10-01T15:23:21.252Z,1.20
2017-10-01T15:25:50.434Z,1.20
2017-10-01T15:28:18.826Z,1.47
2017-10-01T15:30:46.477Z,1.63
2017-10-01T15:33:14.157Z,0.93
2017-10-01T15:35:41.738Z,1.20
2017-10-01T15:38:10.322Z,1.00
2017-10-01T15:40:38.687Z,1.37
2017-10-01T15:43:07.081Z,1.07
2017-10-01T15:45:35.407Z,1.33
2017-10-01T15:48:03.015Z,2.03
2017-10-01T15:50:30.582Z,1.17
2017-10-01T15:52:58.242Z,1.63
2017-10-01T15:55:25.795Z,1.70
2017-10-01T15:57:54.189Z,1.93
2017-10-01T16:00:21.817Z,1.10
2017-10-01T16:02:50.978Z,1.67
2017-10-01T16:05:18.635Z,1.67
2017-10-01T16:07:46.304Z,1.20
2017-10-01T16:10:14.672Z,1.30
2017-10-01T16:12:42.286Z,2.07
2017-10-01T16:15:10.991Z,1.70
2017-10-01T16:17:39.476Z,1.80
2017-10-01T16:20:07.146Z,2.00
2017-10-01T16:22:34.752Z,1.97
2017-10-01T16:25:02.349Z,1.93
2017-10-01T16:27:30.716Z,2.37
2017-10-01T16:29:58.602Z,2.20
2017-10-01T16:32:26.299Z,1.60
2017-10-01T16:34:53.871Z,1.70
2017-10-01T16:37:21.530Z,2.10
2017-10-01T16:39:49.852Z,1.93
2017-10-01T16:42:17.499Z,1.30
2017-10-01T16:44:45.203Z,2.70
2017-10-01T16:47:13.028Z,2.33
2017-10-01T16:49:40.693Z,1.97
2017-10-01T16:52:08.361Z,2.17
2017-10-01T16:54:35.990Z,2.93
2017-10-01T16:57:04.360Z,2.20
2017-10-01T16:59:32.720Z,2.17
2017-10-01T17:02:00.322Z,2.93
2017-10-01T17:04:28.837Z,1.67
2017-10-01T17:06:56.542Z,4.33
2017-10-01T17:09:24.930Z,2.30
2017-10-01T17:11:53.327Z,1.90
2017-10-01T17:14:20.915Z,2.80
2017-10-01T17:16:48.778Z,2.60
2017-10-01T17:19:16.413Z,2.37
2017-10-01T17:21:44.045Z,3.03
2017-10-01T17:24:11.634Z,2.13
2017-10-01T17:26:39.300Z,3.43
2017-10-01T17:29:07.694Z,5.10
2017-10-01T17:31:36.098Z,3.03
2017-10-01T17:34:03.730Z,3.13
2017-10-01T17:36:31.363Z,3.30
2017-10-01T17:38:59.054Z,3.87
2017-10-01T17:41:26.679Z,3.10
2017-10-01T17:43:54.279Z,3.63
2017-10-01T17:46:21.875Z,2.80
2017-10-01T17:48:49.496Z,2.70
2017-10-01T17:51:17.134Z,3.70
2017-10-01T17:53:45.501Z,2.67
2017-10-01T17:56:13.114Z,2.57
2017-10-01T17:58:41.500Z,2.80
2017-10-01T18:01:09.238Z,2.10
2017-10-01T18:03:36.849Z,2.50
2017-10-01T18:06:04.452Z,2.10
2017-10-01T18:08:32.828Z,2.97
2017-10-01T18:11:01.177Z,2.60
2017-10-01T18:13:28.802Z,2.63
2017-10-01T18:15:56.375Z,2.70
2017-10-01T18:18:23.953Z,3.70
2017-10-01T18:20:51.540Z,2.67
2017-10-01T18:23:20.012Z,2.70
2017-10-01T18:25:48.389Z,2.43
2017-10-01T18:28:16.760Z,2.57
2017-10-01T18:30:44.395Z,3.60
2017-10-01T18:33:11.956Z,2.80
2017-10-01T18:35:39.625Z,2.37
2017-10-01T18:38:07.279Z,2.63
2017-10-01T18:40:34.885Z,3.73
2017-10-01T18:43:02.501Z,2.67
2017-10-01T18:45:30.101Z,2.17
2017-10-01T18:47:57.704Z,2.77
2017-10-01T18:50:25.269Z,2.60
2017-10-01T18:52:52.903Z,3.10
2017-10-01T18:55:20.649Z,3.23
2017-10-01T18:57:48.264Z,3.07
2017-10-01T19:00:15.837Z,4.10
2017-10-01T19:02:43.467Z,2.80
2017-10-01T19:05:11.054Z,3.53
2017-10-01T19:07:38.657Z,2.60
2017-10-01T19:10:07.035Z,2.70
2017-10-01T19:12:36.064Z,2.27
2017-10-01T19:15:03.713Z,2.67
2017-10-01T19:17:31.361Z,3.10
2017-10-01T19:19:58.951Z,2.40
2017-10-01T19:22:26.550Z,3.17
2017-10-01T19:24:54.108Z,3.10
2017-10-01T19:27:21.703Z,3.07
2017-10-01T19:29:49.346Z,3.40
2017-10-01T19:32:17.730Z,2.60
2017-10-01T19:34:46.080Z,3.70
2017-10-01T19:37:13.640Z,2.73
2017-10-01T19:39:41.246Z,2.90
2017-10-01T19:42:08.972Z,3.40
2017-10-01T19:44:36.577Z,3.53
2017-10-01T19:47:04.196Z,3.57
2017-10-01T19:49:31.801Z,3.40
2017-10-01T19:51:59.418Z,4.70
2017-10-01T19:54:27.057Z,3.90
2017-10-01T19:56:54.682Z,3.53
2017-10-01T19:59:22.318Z,2.50
2017-10-01T20:01:50.703Z,3.20
2017-10-01T20:04:18.298Z,2.33
2017-10-01T20:06:45.963Z,3.07
2017-10-01T20:09:13.591Z,3.30
2017-10-01T20:11:42.110Z,4.53
2017-10-01T20:14:09.755Z,3.20
2017-10-01T20:16:37.362Z,3.00
2017-10-01T20:19:04.962Z,3.13
2017-10-01T20:21:32.596Z,2.80
2017-10-01T20:24:01.336Z,2.83
2017-10-01T20:26:28.949Z,2.87
2017-10-01T20:28:57.327Z,2.83
2017-10-01T20:31:25.717Z,2.80
2017-10-01T20:33:54.070Z,2.90
2017-10-01T20:36:21.780Z,3.87
2017-10-01T20:38:49.403Z,4.07
2017-10-01T20:41:17.772Z,2.33
2017-10-01T20:43:45.380Z,2.60
2017-10-01T20:46:13.065Z,2.37
2017-10-01T20:48:40.646Z,3.10
2017-10-01T20:51:09.088Z,3.20
2017-10-01T20:53:36.764Z,3.33
2017-10-01T20:56:04.361Z,3.20
2017-10-01T20:58:31.933Z,3.77
2017-10-01T21:01:00.418Z,3.13
2017-10-01T21:03:28.768Z,2.53
2017-10-01T21:05:56.370Z,2.97
2017-10-01T21:08:24.040Z,2.90
2017-10-01T21:10:51.716Z,2.73
2017-10-01T21:13:19.313Z,4.60
2017-10-01T21:15:46.912Z,2.60
2017-10-01T21:18:14.505Z,3.37
2017-10-01T21:20:42.317Z,2.20
2017-10-01T21:23:09.969Z,3.37
2017-10-01T21:25:37.552Z,2.80
2017-10-01T21:28:06.543Z,2.93
2017-10-01T21:30:34.225Z,3.53
2017-10-01T21:33:01.871Z,2.50
2017-10-01T21:35:30.230Z,2.73
2017-10-01T21:37:57.864Z,2.90
2017-10-01T21:40:25.507Z,2.77
2017-10-01T21:42:53.107Z,2.60
2017-10-01T21:45:20.719Z,3.10
2017-10-01T21:47:48.328Z,2.90
2017-10-01T21:50:15.965Z,2.63
2017-10-01T21:52:43.540Z,3.17
2017-10-01T21:55:11.215Z,2.70
2017-10-01T21:57:39.343Z,3.20
2017-10-01T22:00:07.877Z,2.83
2017-10-01T22:02:35.484Z,2.60
2017-10-01T22:05:03.709Z,3.17
2017-10-01T22:07:31.314Z,2.80
2017-10-01T22:09:58.870Z,2.97
2017-10-01T22:12:26.472Z,2.93
2017-10-01T22:14:54.078Z,3.00
2017-10-01T22:17:21.676Z,2.53
2017-10-01T22:19:49.230Z,4.37
2017-10-01T22:22:16.826Z,2.70
2017-10-01T22:24:44.407Z,2.47
2017-10-01T22:27:12.112Z,2.57
2017-10-01T22:29:39.729Z,2.50
2017-10-01T22:32:07.328Z,2.97
2017-10-01T22:34:34.899Z,3.10
2017-10-01T22:37:02.472Z,2.47
2017-10-01T22:39:30.121Z,3.10
2017-10-01T22:41:57.794Z,3.30
2017-10-01T22:44:25.383Z,2.57
2017-10-01T22:46:52.994Z,2.77
2017-10-01T22:49:20.688Z,2.47
2017-10-01T22:51:48.299Z,2.40
2017-10-01T22:54:15.884Z,2.73
2017-10-01T22:56:43.516Z,2.50
2017-10-01T22:59:11.098Z,2.97
2017-10-01T23:01:38.705Z,2.43
2017-10-01T23:04:06.318Z,2.80
2017-10-01T23:06:33.913Z,2.13
2017-10-01T23:09:01.540Z,2.13
2017-10-01T23:11:29.929Z,2.57
2017-10-01T23:13:57.552Z,2.00
2017-10-01T23:16:25.140Z,2.13
2017-10-01T23:18:52.747Z,2.60
2017-10-01T23:21:20.370Z,2.37
2017-10-01T23:23:48.439Z,2.43
2017-10-01T23:26:16.005Z,2.77
2017-10-01T23:28:43.597Z,2.40
2017-10-01T23:31:11.189Z,2.13
2017-10-01T23:33:38.755Z,2.17
2017-10-01T23:36:06.352Z,2.67
2017-10-01T23:38:33.972Z,1.97
2017-10-01T23:41:01.556Z,2.70
2017-10-01T23:43:29.223Z,2.70
2017-10-01T23:45:56.818Z,1.97
2017-10-01T23:48:24.449Z,3.00
2017-10-01T23:50:52.036Z,2.43
2017-10-01T23:53:19.659Z,3.23
2017-10-01T23:55:48.191Z,2.40
2017-10-01T23:58:16.552Z,2.70
